createdAt,value
2023-03-10T00:00:09.109Z,0.00
2023-03-10T00:01:09.023Z,0.00
2023-03-10T00:02:09.108Z,0.00
2023-03-10T00:03:09.004Z,0.00
2023-03-10T00:04:09.102Z,0.00
2023-03-10T00:05:08.985Z,0.00
2023-03-10T00:06:09.169Z,0.00
2023-03-10T00:07:08.993Z,0.00
2023-03-10T00:08:08.953Z,0.00
2023-03-10T00:09:08.971Z,0.00
2023-03-10T00:10:08.967Z,0.00
2023-03-10T00:11:08.909Z,0.00
2023-03-10T00:12:08.925Z,0.00
2023-03-10T00:13:09.000Z,0.00
2023-03-10T00:14:09.017Z,0.00
2023-03-10T00:15:08.852Z,0.00
2023-03-10T00:16:08.906Z,0.00
2023-03-10T00:17:08.905Z,0.00
2023-03-10T00:18:08.850Z,0.00
2023-03-10T00:19:08.905Z,0.00
2023-03-10T00:20:08.830Z,0.00
2023-03-10T00:21:08.813Z,0.00
2023-03-10T00:22:08.818Z,0.00
2023-03-10T00:23:08.850Z,0.00
2023-03-10T00:24:08.779Z,0.00
2023-03-10T00:25:08.766Z,0.00
2023-03-10T00:26:08.760Z,0.00
2023-03-10T00:27:08.775Z,0.00
2023-03-10T00:28:08.760Z,0.00
2023-03-10T00:29:08.711Z,0.00
2023-03-10T00:30:08.708Z,0.00
2023-03-10T00:31:08.773Z,0.00
2023-03-10T00:32:08.800Z,0.00
2023-03-10T00:33:08.695Z,0.00
2023-03-10T00:34:08.729Z,0.00
2023-03-10T00:35:08.689Z,0.00
2023-03-10T00:36:08.703Z,0.00
2023-03-10T00:37:08.640Z,0.00
2023-03-10T00:38:08.721Z,0.00
2023-03-10T00:39:11.671Z,0.00
2023-03-10T00:40:08.637Z,0.00
2023-03-10T00:41:08.664Z,0.00
2023-03-10T00:42:08.629Z,0.00
2023-03-10T00:43:08.669Z,0.00
2023-03-10T00:44:08.587Z,0.00
2023-03-10T00:45:08.606Z,0.00
2023-03-10T00:46:08.632Z,0.00
2023-03-10T00:47:08.687Z,0.00
2023-03-10T00:48:08.545Z,0.00
2023-03-10T00:49:08.528Z,0.00
2023-03-10T00:50:08.506Z,0.00
2023-03-10T00:51:08.518Z,0.00
2023-03-10T00:52:08.536Z,0.00
2023-03-10T00:53:08.504Z,0.00
2023-03-10T00:54:08.477Z,0.00
2023-03-10T00:55:08.475Z,0.00
2023-03-10T00:56:08.421Z,0.00
2023-03-10T00:57:08.445Z,0.00
2023-03-10T00:58:08.471Z,0.00
2023-03-10T00:59:08.412Z,0.00
2023-03-10T01:00:08.440Z,0.00
2023-03-10T01:01:08.420Z,0.00
2023-03-10T01:02:08.399Z,0.00
2023-03-10T01:03:08.401Z,0.00
2023-03-10T01:04:08.402Z,0.00
2023-03-10T01:05:08.384Z,0.00
2023-03-10T01:06:08.326Z,0.00
2023-03-10T01:07:08.356Z,0.00
2023-03-10T01:08:08.464Z,0.00
2023-03-10T01:09:08.327Z,0.00
2023-03-10T01:10:08.304Z,0.00
2023-03-10T01:11:08.255Z,0.00
2023-03-10T01:12:08.262Z,0.00
2023-03-10T01:13:08.265Z,0.00
2023-03-10T01:14:08.250Z,0.00
2023-03-10T01:15:08.217Z,0.00
2023-03-10T01:16:08.400Z,0.00
2023-03-10T01:17:08.228Z,0.00
2023-03-10T01:18:08.257Z,0.00
2023-03-10T01:19:08.175Z,0.00
2023-03-10T01:20:08.222Z,0.00
2023-03-10T01:21:08.176Z,0.00
2023-03-10T01:22:08.153Z,0.00
2023-03-10T01:23:08.136Z,0.00
2023-03-10T01:24:08.198Z,0.00
2023-03-10T01:25:08.248Z,0.00
2023-03-10T01:26:08.112Z,0.00
2023-03-10T01:27:08.115Z,0.00
2023-03-10T01:28:08.226Z,0.00
2023-03-10T01:29:08.098Z,0.00
2023-03-10T01:30:08.177Z,0.00
2023-03-10T01:31:08.204Z,0.00
2023-03-10T01:32:08.111Z,0.00
2023-03-10T01:33:08.101Z,0.00
2023-03-10T01:34:08.060Z,0.00
2023-03-10T01:35:08.043Z,0.00
2023-03-10T01:36:08.080Z,0.00
2023-03-10T01:37:08.045Z,0.00
2023-03-10T01:38:08.345Z,0.00
2023-03-10T01:39:07.990Z,0.00
2023-03-10T01:40:07.991Z,0.00
2023-03-10T01:41:07.954Z,0.00
2023-03-10T01:42:08.014Z,0.00
2023-03-10T01:43:07.994Z,0.00
2023-03-10T01:44:07.973Z,0.00
2023-03-10T01:45:07.925Z,0.00
2023-03-10T01:46:08.020Z,0.00
2023-03-10T01:47:07.955Z,0.00
2023-03-10T01:48:07.891Z,0.00
2023-03-10T01:49:07.937Z,0.00
2023-03-10T01:50:07.877Z,0.00
2023-03-10T01:51:07.859Z,0.00
2023-03-10T01:52:07.861Z,0.00
2023-03-10T01:53:07.842Z,0.00
2023-03-10T01:54:07.881Z,0.00
2023-03-10T01:55:07.827Z,0.00
2023-03-10T01:56:07.797Z,0.00
2023-03-10T01:57:07.808Z,0.00
2023-03-10T01:58:07.833Z,0.00
2023-03-10T01:59:07.808Z,0.00
2023-03-10T02:00:07.762Z,0.00
2023-03-10T02:01:07.837Z,0.00
2023-03-10T02:02:07.806Z,0.00
2023-03-10T02:03:07.746Z,0.00
2023-03-10T02:04:07.763Z,0.00
2023-03-10T02:05:07.814Z,0.00
2023-03-10T02:06:07.794Z,0.00
2023-03-10T02:07:07.691Z,0.00
2023-03-10T02:08:07.668Z,0.00
2023-03-10T02:09:07.719Z,0.00
2023-03-10T02:10:07.655Z,0.00
2023-03-10T02:11:07.647Z,0.00
2023-03-10T02:12:07.632Z,0.00
2023-03-10T02:13:07.712Z,0.00
2023-03-10T02:14:07.634Z,0.00
2023-03-10T02:15:07.621Z,0.00
2023-03-10T02:16:07.647Z,0.00
2023-03-10T02:17:07.622Z,0.00
2023-03-10T02:18:07.616Z,0.00
2023-03-10T02:19:07.568Z,0.00
2023-03-10T02:20:07.596Z,0.00
2023-03-10T02:21:07.656Z,0.00
2023-03-10T02:22:07.528Z,0.00
2023-03-10T02:23:07.521Z,0.00
2023-03-10T02:24:07.521Z,0.00
2023-03-10T02:25:07.556Z,0.00
2023-03-10T02:26:07.543Z,0.00
2023-03-10T02:27:07.487Z,0.00
2023-03-10T02:28:07.529Z,0.00
2023-03-10T02:29:07.479Z,0.00
2023-03-10T02:30:07.474Z,0.00
2023-03-10T02:31:07.487Z,0.00
2023-03-10T02:32:07.457Z,0.00
2023-03-10T02:33:07.443Z,0.00
2023-03-10T02:34:07.498Z,0.00
2023-03-10T02:35:07.405Z,0.00
2023-03-10T02:36:07.484Z,0.00
2023-03-10T02:37:07.356Z,0.00
2023-03-10T02:38:07.363Z,0.00
2023-03-10T02:39:07.395Z,0.00
2023-03-10T02:40:07.357Z,0.00
2023-03-10T02:41:07.328Z,0.00
2023-03-10T02:42:07.377Z,0.00
2023-03-10T02:43:07.349Z,0.00
2023-03-10T02:44:07.338Z,0.00
2023-03-10T02:45:07.330Z,0.00
2023-03-10T02:46:07.360Z,0.00
2023-03-10T02:47:07.304Z,0.00
2023-03-10T02:48:07.263Z,0.00
2023-03-10T02:49:07.271Z,0.00
2023-03-10T02:50:07.277Z,0.00
2023-03-10T02:51:07.236Z,0.00
2023-03-10T02:52:07.186Z,0.00
2023-03-10T02:53:07.169Z,0.00
2023-03-10T02:54:07.255Z,0.00
2023-03-10T02:55:07.189Z,0.00
2023-03-10T02:56:07.174Z,0.00
2023-03-10T02:57:07.166Z,0.00
2023-03-10T02:58:07.173Z,0.00
2023-03-10T02:59:07.175Z,0.00
2023-03-10T03:00:07.256Z,0.00
2023-03-10T03:01:07.148Z,0.00
2023-03-10T03:02:07.100Z,0.00
2023-03-10T03:03:07.092Z,0.00
2023-03-10T03:04:07.171Z,0.00
2023-03-10T03:05:07.101Z,0.00
2023-03-10T03:06:07.092Z,0.00
2023-03-10T03:07:07.011Z,0.00
2023-03-10T03:08:07.017Z,0.00
2023-03-10T03:09:07.140Z,0.00
2023-03-10T03:10:07.000Z,0.00
2023-03-10T03:11:06.980Z,0.00
2023-03-10T03:12:06.977Z,0.00
2023-03-10T03:13:06.986Z,0.00
2023-03-10T03:14:06.960Z,0.00
2023-03-10T03:15:06.960Z,0.00
2023-03-10T03:16:07.018Z,0.00
2023-03-10T03:17:07.010Z,0.00
2023-03-10T03:18:06.936Z,0.00
2023-03-10T03:19:06.934Z,0.00
2023-03-10T03:20:06.933Z,0.00
2023-03-10T03:21:06.903Z,0.00
2023-03-10T03:22:06.892Z,0.00
2023-03-10T03:23:06.888Z,0.00
2023-03-10T03:24:06.902Z,0.00
2023-03-10T03:25:06.866Z,0.00
2023-03-10T03:26:06.850Z,0.00
2023-03-10T03:27:06.816Z,0.00
2023-03-10T03:28:06.865Z,0.00
2023-03-10T03:29:06.810Z,0.00
2023-03-10T03:30:06.857Z,0.00
2023-03-10T03:31:06.778Z,0.00
2023-03-10T03:32:06.866Z,0.00
2023-03-10T03:33:06.754Z,0.00
2023-03-10T03:34:06.772Z,0.00
2023-03-10T03:35:06.745Z,0.00
2023-03-10T03:36:06.758Z,0.00
2023-03-10T03:37:06.720Z,0.00
2023-03-10T03:38:06.727Z,0.00
2023-03-10T03:39:06.755Z,0.00
2023-03-10T03:40:06.721Z,0.00
2023-03-10T03:41:06.685Z,0.00
2023-03-10T03:42:06.682Z,0.00
2023-03-10T03:43:06.707Z,0.00
2023-03-10T03:44:06.647Z,0.00
2023-03-10T03:45:06.641Z,0.00
2023-03-10T03:46:06.768Z,0.00
2023-03-10T03:47:06.647Z,0.00
2023-03-10T03:48:06.585Z,0.00
2023-03-10T03:49:06.569Z,0.00
2023-03-10T03:50:06.615Z,0.00
2023-03-10T03:51:06.604Z,0.00
2023-03-10T03:52:06.581Z,0.00
2023-03-10T03:53:06.556Z,0.00
2023-03-10T03:54:06.575Z,0.00
2023-03-10T03:55:06.577Z,0.00
2023-03-10T03:56:06.533Z,0.00
2023-03-10T03:57:06.510Z,0.00
2023-03-10T03:58:06.516Z,0.00
2023-03-10T03:59:06.505Z,0.00
2023-03-10T04:00:06.527Z,0.00
2023-03-10T04:01:06.512Z,0.00
2023-03-10T04:02:06.488Z,0.00
2023-03-10T04:03:06.482Z,0.00
2023-03-10T04:04:06.421Z,0.00
2023-03-10T04:05:06.508Z,0.00
2023-03-10T04:06:06.434Z,0.00
2023-03-10T04:07:06.405Z,0.00
2023-03-10T04:08:06.381Z,0.00
2023-03-10T04:09:06.448Z,0.00
2023-03-10T04:10:06.394Z,0.00
2023-03-10T04:11:06.409Z,0.00
2023-03-10T04:12:06.382Z,0.00
2023-03-10T04:13:06.363Z,0.00
2023-03-10T04:14:06.334Z,0.00
2023-03-10T04:15:06.335Z,0.00
2023-03-10T04:16:06.360Z,0.00
2023-03-10T04:17:06.318Z,0.00
2023-03-10T04:18:06.297Z,0.00
2023-03-10T04:19:06.272Z,0.00
2023-03-10T04:20:07.855Z,0.00
2023-03-10T04:21:06.265Z,0.00
2023-03-10T04:22:06.249Z,0.00
2023-03-10T04:23:06.308Z,0.00
2023-03-10T04:24:06.245Z,0.00
2023-03-10T04:25:06.264Z,0.00
2023-03-10T04:26:06.200Z,0.00
2023-03-10T04:27:06.181Z,0.00
2023-03-10T04:28:06.194Z,0.00
2023-03-10T04:29:06.171Z,0.00
2023-03-10T04:30:06.180Z,0.00
2023-03-10T04:31:06.197Z,0.00
2023-03-10T04:32:06.143Z,0.00
2023-03-10T04:33:06.123Z,0.00
2023-03-10T04:34:06.104Z,0.00
2023-03-10T04:35:06.162Z,0.00
2023-03-10T04:36:06.124Z,0.00
2023-03-10T04:37:06.125Z,0.00
2023-03-10T04:38:06.105Z,0.00
2023-03-10T04:39:06.128Z,0.00
2023-03-10T04:40:06.053Z,0.00
2023-03-10T04:41:06.036Z,0.00
2023-03-10T04:42:06.025Z,0.00
2023-03-10T04:43:06.035Z,0.00
2023-03-10T04:44:06.029Z,0.00
2023-03-10T04:45:06.075Z,0.00
2023-03-10T04:46:06.058Z,0.00
2023-03-10T04:47:06.014Z,0.00
2023-03-10T04:48:05.961Z,0.00
2023-03-10T04:49:05.965Z,0.00
2023-03-10T04:50:05.956Z,0.00
2023-03-10T04:51:05.939Z,0.00
2023-03-10T04:52:05.896Z,0.00
2023-03-10T04:53:05.893Z,0.00
2023-03-10T04:54:05.931Z,0.00
2023-03-10T04:55:05.892Z,0.00
2023-03-10T04:56:05.901Z,0.00
2023-03-10T04:57:05.885Z,0.00
2023-03-10T04:58:05.861Z,0.00
2023-03-10T04:59:05.850Z,0.00
2023-03-10T05:00:05.888Z,0.00
2023-03-10T05:01:05.961Z,0.00
2023-03-10T05:02:05.847Z,0.00
2023-03-10T05:03:05.788Z,0.00
2023-03-10T05:04:05.800Z,0.00
2023-03-10T05:05:05.853Z,0.00
2023-03-10T05:06:05.797Z,0.00
2023-03-10T05:07:05.761Z,0.00
2023-03-10T05:08:05.841Z,0.00
2023-03-10T05:09:05.750Z,0.00
2023-03-10T05:10:05.738Z,0.00
2023-03-10T05:11:05.706Z,0.00
2023-03-10T05:12:05.694Z,0.00
2023-03-10T05:13:05.693Z,0.00
2023-03-10T05:14:05.680Z,0.00
2023-03-10T05:15:05.653Z,0.00
2023-03-10T05:16:05.723Z,0.00
2023-03-10T05:17:05.671Z,0.00
2023-03-10T05:18:05.641Z,0.00
2023-03-10T05:19:05.624Z,0.00
2023-03-10T05:20:05.631Z,0.00
2023-03-10T05:21:05.618Z,0.00
2023-03-10T05:22:05.607Z,0.00
2023-03-10T05:23:05.619Z,0.00
2023-03-10T05:24:05.606Z,0.00
2023-03-10T05:25:05.565Z,0.00
2023-03-10T05:26:05.535Z,0.00
2023-03-10T05:27:05.548Z,0.00
2023-03-10T05:28:05.542Z,0.00
2023-03-10T05:29:05.514Z,0.00
2023-03-10T05:30:05.445Z,1.00
2023-03-10T05:31:05.514Z,2.00
2023-03-10T05:32:05.433Z,2.00
2023-03-10T05:33:05.411Z,3.00
2023-03-10T05:34:05.391Z,3.00
2023-03-10T05:35:05.425Z,5.00
2023-03-10T05:36:05.501Z,4.00
2023-03-10T05:37:05.395Z,7.00
2023-03-10T05:38:05.393Z,9.00
2023-03-10T05:39:05.401Z,9.00
2023-03-10T05:40:05.362Z,9.00
2023-03-10T05:41:05.363Z,10.00
2023-03-10T05:42:05.327Z,12.00
2023-03-10T05:43:05.329Z,8.00
2023-03-10T05:44:05.306Z,14.00
2023-03-10T05:45:05.291Z,17.00
2023-03-10T05:46:05.359Z,18.00
2023-03-10T05:47:05.371Z,20.00
2023-03-10T05:48:05.273Z,23.00
2023-03-10T05:49:05.262Z,27.00
2023-03-10T05:50:05.224Z,27.00
2023-03-10T05:51:05.231Z,30.00
2023-03-10T05:52:05.212Z,33.00
2023-03-10T05:53:05.220Z,37.00
2023-03-10T05:54:05.251Z,37.00
2023-03-10T05:55:05.217Z,36.00
2023-03-10T05:56:05.162Z,35.00
2023-03-10T05:57:05.184Z,39.00
2023-03-10T05:58:05.151Z,46.00
2023-03-10T05:59:05.132Z,43.00
2023-03-10T06:00:05.140Z,41.00
2023-03-10T06:01:05.157Z,51.00
2023-03-10T06:02:05.145Z,58.00
2023-03-10T06:03:05.167Z,65.00
2023-03-10T06:04:05.154Z,77.00
2023-03-10T06:05:05.116Z,82.00
2023-03-10T06:06:05.079Z,93.00
2023-03-10T06:07:05.091Z,92.00
2023-03-10T06:08:05.033Z,115.00
2023-03-10T06:09:05.049Z,125.00
2023-03-10T06:10:05.058Z,135.00
2023-03-10T06:11:05.029Z,141.00
2023-03-10T06:12:05.029Z,140.00
2023-03-10T06:13:05.012Z,157.00
2023-03-10T06:14:04.981Z,167.00
2023-03-10T06:15:05.008Z,225.00
2023-03-10T06:16:05.120Z,212.00
2023-03-10T06:17:04.980Z,199.00
2023-03-10T06:18:04.934Z,243.00
2023-03-10T06:19:04.928Z,225.00
2023-03-10T06:20:04.971Z,242.00
2023-03-10T06:21:04.899Z,272.00
2023-03-10T06:22:04.913Z,283.00
2023-03-10T06:23:04.894Z,272.00
2023-03-10T06:24:04.910Z,261.00
2023-03-10T06:25:04.868Z,302.00
2023-03-10T06:26:04.856Z,377.00
2023-03-10T06:27:04.867Z,347.00
2023-03-10T06:28:04.828Z,445.00
2023-03-10T06:29:04.859Z,448.00
2023-03-10T06:30:04.823Z,571.00
2023-03-10T06:31:04.878Z,519.00
2023-03-10T06:32:04.934Z,535.00
2023-03-10T06:33:04.805Z,445.00
2023-03-10T06:34:04.889Z,376.00
2023-03-10T06:35:04.799Z,348.00
2023-03-10T06:36:04.788Z,372.00
2023-03-10T06:37:04.770Z,336.00
2023-03-10T06:38:04.743Z,353.00
2023-03-10T06:39:04.714Z,438.00
2023-03-10T06:40:04.716Z,570.00
2023-03-10T06:41:04.689Z,595.00
2023-03-10T06:42:04.700Z,552.00
2023-03-10T06:43:04.739Z,499.00
2023-03-10T06:44:04.653Z,554.00
2023-03-10T06:45:04.667Z,507.00
2023-03-10T06:46:04.776Z,371.00
2023-03-10T06:47:04.666Z,310.00
2023-03-10T06:48:04.702Z,276.00
2023-03-10T06:49:04.738Z,307.00
2023-03-10T06:50:04.639Z,587.00
2023-03-10T06:51:04.622Z,767.00
2023-03-10T06:52:04.590Z,857.00
2023-03-10T06:53:04.618Z,665.00
2023-03-10T06:54:04.566Z,497.00
2023-03-10T06:55:04.544Z,459.00
2023-03-10T06:56:04.508Z,480.00
2023-03-10T06:57:04.625Z,632.00
2023-03-10T06:58:04.553Z,1067.00
2023-03-10T06:59:04.521Z,999.00
2023-03-10T07:00:04.501Z,939.00
2023-03-10T07:01:04.582Z,851.00
2023-03-10T07:02:04.491Z,690.00
2023-03-10T07:03:04.492Z,564.00
2023-03-10T07:04:04.462Z,547.00
2023-03-10T07:05:04.556Z,542.00
2023-03-10T07:06:04.458Z,717.00
2023-03-10T07:07:04.457Z,798.00
2023-03-10T07:08:04.406Z,677.00
2023-03-10T07:09:04.404Z,965.00
2023-03-10T07:10:06.345Z,909.00
2023-03-10T07:11:04.385Z,1000.00
2023-03-10T07:12:04.406Z,757.00
2023-03-10T07:13:04.416Z,753.00
2023-03-10T07:14:04.424Z,815.00
2023-03-10T07:15:04.315Z,935.00
2023-03-10T07:16:04.338Z,1058.00
2023-03-10T07:17:04.379Z,1241.00
2023-03-10T07:18:04.353Z,1299.00
2023-03-10T07:19:04.355Z,1132.00
2023-03-10T07:20:04.312Z,998.00
2023-03-10T07:21:04.267Z,840.00
2023-03-10T07:22:04.293Z,726.00
2023-03-10T07:23:04.298Z,848.00
2023-03-10T07:24:04.269Z,1017.00
2023-03-10T07:25:04.211Z,976.00
2023-03-10T07:26:04.206Z,1147.00
2023-03-10T07:27:04.231Z,1525.00
2023-03-10T07:28:04.225Z,1520.00
2023-03-10T07:29:04.201Z,1255.00
2023-03-10T07:30:04.247Z,1057.00
2023-03-10T07:31:04.268Z,922.00
2023-03-10T07:32:04.181Z,834.00
2023-03-10T07:33:04.196Z,838.00
2023-03-10T07:34:04.135Z,928.00
2023-03-10T07:35:04.170Z,1157.00
2023-03-10T07:36:04.167Z,1089.00
2023-03-10T07:37:04.111Z,988.00
2023-03-10T07:38:04.146Z,882.00
2023-03-10T07:39:04.112Z,866.00
2023-03-10T07:40:04.114Z,969.00
2023-03-10T07:41:04.061Z,937.00
2023-03-10T07:42:04.079Z,945.00
2023-03-10T07:43:04.041Z,1029.00
2023-03-10T07:44:04.043Z,923.00
2023-03-10T07:45:04.052Z,966.00
2023-03-10T07:46:04.143Z,1044.00
2023-03-10T07:47:04.045Z,993.00
2023-03-10T07:48:04.043Z,970.00
2023-03-10T07:49:03.992Z,1032.00
2023-03-10T07:50:03.992Z,1147.00
2023-03-10T07:51:03.983Z,1476.00
2023-03-10T07:52:03.962Z,1418.00
2023-03-10T07:53:03.960Z,1750.00
2023-03-10T07:54:03.957Z,1830.00
2023-03-10T07:55:03.952Z,1908.00
2023-03-10T07:56:03.911Z,1703.00
2023-03-10T07:57:03.939Z,1551.00
2023-03-10T07:58:03.910Z,1527.00
2023-03-10T07:59:03.903Z,1855.00
2023-03-10T08:00:03.895Z,1867.00
2023-03-10T08:01:03.908Z,1950.00
2023-03-10T08:02:03.860Z,1738.00
2023-03-10T08:03:03.896Z,1798.00
2023-03-10T08:04:04.013Z,1885.00
2023-03-10T08:05:03.853Z,1777.00
2023-03-10T08:06:03.827Z,1688.00
2023-03-10T08:07:03.809Z,1453.00
2023-03-10T08:08:03.824Z,1374.00
2023-03-10T08:09:03.750Z,1367.00
2023-03-10T08:10:03.752Z,1415.00
2023-03-10T08:11:03.768Z,1285.00
2023-03-10T08:12:03.763Z,1074.00
2023-03-10T08:13:03.727Z,999.00
2023-03-10T08:14:03.802Z,1450.00
2023-03-10T08:15:03.706Z,1545.00
2023-03-10T08:16:03.809Z,1706.00
2023-03-10T08:17:03.678Z,1859.00
2023-03-10T08:18:03.681Z,2079.00
2023-03-10T08:19:03.685Z,2157.00
2023-03-10T08:20:03.696Z,2897.00
2023-03-10T08:21:03.626Z,3190.00
2023-03-10T08:22:03.629Z,2897.00
2023-03-10T08:23:03.641Z,3025.00
2023-03-10T08:24:03.645Z,2633.00
2023-03-10T08:25:03.609Z,2502.00
2023-03-10T08:26:03.613Z,2825.00
2023-03-10T08:27:03.609Z,2847.00
2023-03-10T08:28:03.662Z,2324.00
2023-03-10T08:29:03.583Z,2126.00
2023-03-10T08:30:03.543Z,1802.00
2023-03-10T08:31:05.564Z,1679.00
2023-03-10T08:32:03.612Z,1972.00
2023-03-10T08:33:03.566Z,1762.00
2023-03-10T08:34:03.559Z,1481.00
2023-03-10T08:35:03.517Z,1731.00
2023-03-10T08:36:03.536Z,1498.00
2023-03-10T08:37:03.482Z,1349.00
2023-03-10T08:38:03.484Z,1444.00
2023-03-10T08:39:03.466Z,1558.00
2023-03-10T08:40:03.444Z,1543.00
2023-03-10T08:41:03.424Z,1976.00
2023-03-10T08:42:03.635Z,2494.00
2023-03-10T08:43:03.419Z,2961.00
2023-03-10T08:44:03.413Z,2900.00
2023-03-10T08:45:03.400Z,2751.00
2023-03-10T08:46:03.424Z,2583.00
2023-03-10T08:47:03.462Z,2452.00
2023-03-10T08:48:03.355Z,3214.00
2023-03-10T08:49:03.373Z,2728.00
2023-03-10T08:50:03.369Z,2317.00
2023-03-10T08:51:03.334Z,3105.00
2023-03-10T08:52:03.346Z,3808.00
2023-03-10T08:53:03.346Z,4101.00
2023-03-10T08:54:03.365Z,4420.00
2023-03-10T08:55:03.274Z,3783.00
2023-03-10T08:56:03.283Z,3428.00
2023-03-10T08:57:03.303Z,3337.00
2023-03-10T08:58:03.298Z,2633.00
2023-03-10T08:59:03.295Z,2572.00
2023-03-10T09:00:03.499Z,2698.00
2023-03-10T09:01:03.239Z,2600.00
2023-03-10T09:02:03.506Z,2576.00
2023-03-10T09:03:03.239Z,3061.00
2023-03-10T09:04:03.342Z,3520.00
2023-03-10T09:05:03.186Z,3747.00
2023-03-10T09:06:03.178Z,4863.00
2023-03-10T09:07:03.135Z,5728.00
2023-03-10T09:08:03.253Z,5378.00
2023-03-10T09:09:03.164Z,5209.00
2023-03-10T09:10:03.142Z,4434.00
2023-03-10T09:11:03.118Z,4247.00
2023-03-10T09:12:03.141Z,4718.00
2023-03-10T09:13:13.237Z,4765.00
2023-03-10T09:14:04.211Z,5787.00
2023-03-10T09:15:03.042Z,5750.00
2023-03-10T09:16:03.162Z,4906.00
2023-03-10T09:17:03.114Z,3916.00
2023-03-10T09:18:03.068Z,4239.00
2023-03-10T09:19:03.043Z,3656.00
2023-03-10T09:20:03.023Z,3163.00
2023-03-10T09:21:02.963Z,2975.00
2023-03-10T09:22:02.958Z,2558.00
2023-03-10T09:23:02.966Z,2954.00
2023-03-10T09:24:03.002Z,3041.00
2023-03-10T09:25:02.933Z,3064.00
2023-03-10T09:26:02.914Z,3439.00
2023-03-10T09:27:02.973Z,3450.00
2023-03-10T09:28:02.933Z,4369.00
2023-03-10T09:29:02.936Z,3705.00
2023-03-10T09:30:02.925Z,4476.00
2023-03-10T09:31:02.924Z,3687.00
2023-03-10T09:32:02.977Z,3688.00
2023-03-10T09:33:02.961Z,3469.00
2023-03-10T09:34:02.881Z,3747.00
2023-03-10T09:35:02.875Z,5457.00
2023-03-10T09:36:07.194Z,5232.00
2023-03-10T09:37:03.813Z,5680.00
2023-03-10T09:38:02.922Z,4818.00
2023-03-10T09:39:02.861Z,4366.00
2023-03-10T09:40:05.204Z,5546.00
2023-03-10T09:41:02.803Z,5070.00
2023-03-10T09:42:02.842Z,4985.00
2023-03-10T09:43:02.761Z,5747.00
2023-03-10T09:44:02.766Z,5318.00
2023-03-10T09:45:02.737Z,4422.00
2023-03-10T09:46:02.843Z,3921.00
2023-03-10T09:47:02.761Z,3720.00
2023-03-10T09:48:04.836Z,3699.00
2023-03-10T09:49:02.699Z,3919.00
2023-03-10T09:50:02.735Z,3123.00
2023-03-10T09:51:02.665Z,3047.00
2023-03-10T09:52:02.652Z,2972.00
2023-03-10T09:53:02.651Z,4996.00
2023-03-10T09:54:02.671Z,5335.00
2023-03-10T09:55:02.672Z,6258.00
2023-03-10T09:56:02.632Z,6928.00
2023-03-10T09:57:02.651Z,5840.00
2023-03-10T09:58:04.033Z,5403.00
2023-03-10T09:59:02.628Z,6361.00
2023-03-10T10:00:02.610Z,6158.00
2023-03-10T10:01:02.590Z,4925.00
2023-03-10T10:02:02.577Z,4408.00
2023-03-10T10:03:02.810Z,2963.00
2023-03-10T10:04:02.678Z,3506.00
2023-03-10T10:05:04.033Z,3623.00
2023-03-10T10:06:02.543Z,5082.00
2023-03-10T10:07:03.178Z,5510.00
2023-03-10T10:08:02.521Z,6075.00
2023-03-10T10:09:04.979Z,5498.00
2023-03-10T10:10:02.521Z,5964.00
2023-03-10T10:11:02.809Z,8587.00
2023-03-10T10:12:02.476Z,9408.00
2023-03-10T10:13:02.439Z,9606.00
2023-03-10T10:14:02.410Z,10813.00
2023-03-10T10:15:02.431Z,8757.00
2023-03-10T10:16:21.438Z,7860.00
2023-03-10T10:17:03.463Z,6698.00
2023-03-10T10:18:12.146Z,6919.00
2023-03-10T10:19:03.470Z,6869.00
2023-03-10T10:20:02.365Z,5680.00
2023-03-10T10:21:02.373Z,5432.00
2023-03-10T10:22:02.850Z,3871.00
2023-03-10T10:23:02.314Z,5487.00
2023-03-10T10:24:02.332Z,6790.00
2023-03-10T10:25:02.267Z,5245.00
2023-03-10T10:26:02.805Z,4334.00
2023-03-10T10:27:02.293Z,3625.00
2023-03-10T10:28:02.318Z,3581.00
2023-03-10T10:29:02.262Z,3162.00
2023-03-10T10:30:02.254Z,3043.00
2023-03-10T10:31:02.314Z,2568.00
2023-03-10T10:32:02.250Z,2049.00
2023-03-10T10:33:02.242Z,1857.00
2023-03-10T10:34:02.232Z,2013.00
2023-03-10T10:35:02.222Z,4211.00
2023-03-10T10:36:02.261Z,5020.00
2023-03-10T10:37:02.278Z,5603.00
2023-03-10T10:38:02.160Z,5473.00
2023-03-10T10:39:02.157Z,6805.00
2023-03-10T10:40:02.182Z,7521.00
2023-03-10T10:41:02.167Z,8615.00
2023-03-10T10:42:02.219Z,8114.00
2023-03-10T10:43:02.172Z,6843.00
2023-03-10T10:44:02.157Z,5959.00
2023-03-10T10:45:02.084Z,4137.00
2023-03-10T10:46:02.205Z,4082.00
2023-03-10T10:47:02.183Z,5222.00
2023-03-10T10:48:02.067Z,6953.00
2023-03-10T10:49:02.030Z,6000.00
2023-03-10T10:50:02.041Z,5271.00
2023-03-10T10:51:02.016Z,4688.00
2023-03-10T10:52:02.053Z,4749.00
2023-03-10T10:53:01.992Z,4279.00
2023-03-10T10:54:01.990Z,4151.00
2023-03-10T10:55:02.000Z,3691.00
2023-03-10T10:56:01.992Z,4139.00
2023-03-10T10:57:02.042Z,4111.00
2023-03-10T10:58:02.053Z,3537.00
2023-03-10T10:59:01.985Z,2898.00
2023-03-10T11:00:01.964Z,2192.00
2023-03-10T11:01:02.010Z,1993.00
2023-03-10T11:02:02.150Z,1900.00
2023-03-10T11:03:01.941Z,2993.00
2023-03-10T11:04:01.917Z,4649.00
2023-03-10T11:05:01.895Z,4062.00
2023-03-10T11:06:01.909Z,2664.00
2023-03-10T11:07:01.857Z,2403.00
2023-03-10T11:08:01.846Z,4385.00
2023-03-10T11:09:01.889Z,4652.00
2023-03-10T11:10:01.877Z,4644.00
2023-03-10T11:11:01.862Z,4704.00
2023-03-10T11:12:02.080Z,4617.00
2023-03-10T11:13:01.807Z,5106.00
2023-03-10T11:14:01.819Z,4828.00
2023-03-10T11:15:01.938Z,3733.00
2023-03-10T11:16:01.916Z,5756.00
2023-03-10T11:17:01.766Z,8068.00
2023-03-10T11:18:01.754Z,8371.00
2023-03-10T11:19:01.767Z,13845.00
2023-03-10T11:20:01.750Z,12850.00
2023-03-10T11:21:01.779Z,13505.00
2023-03-10T11:22:01.734Z,13373.00
2023-03-10T11:23:01.776Z,12663.00
2023-03-10T11:24:01.710Z,12126.00
2023-03-10T11:25:01.882Z,13544.00
2023-03-10T11:26:02.102Z,13682.00
2023-03-10T11:27:01.633Z,12996.00
2023-03-10T11:28:01.720Z,11664.00
2023-03-10T11:29:01.662Z,10937.00
2023-03-10T11:30:01.704Z,10317.00
2023-03-10T11:31:01.662Z,9865.00
2023-03-10T11:32:01.622Z,9247.00
2023-03-10T11:33:01.651Z,8787.00
2023-03-10T11:34:01.604Z,8398.00
2023-03-10T11:35:01.605Z,8437.00
2023-03-10T11:36:01.650Z,8246.00
2023-03-10T11:37:01.591Z,8010.00
2023-03-10T11:38:01.592Z,7449.00
2023-03-10T11:39:01.545Z,6825.00
2023-03-10T11:40:01.557Z,7024.00
2023-03-10T11:41:01.552Z,7609.00
2023-03-10T11:42:01.517Z,7752.00
2023-03-10T11:43:01.496Z,8009.00
2023-03-10T11:44:01.488Z,8833.00
2023-03-10T11:45:01.467Z,9064.00
2023-03-10T11:46:01.475Z,9080.00
2023-03-10T11:47:01.458Z,8408.00
2023-03-10T11:48:01.421Z,7733.00
2023-03-10T11:49:01.506Z,7177.00
2023-03-10T11:50:01.458Z,7198.00
2023-03-10T11:51:01.415Z,7202.00
2023-03-10T11:52:01.419Z,6778.00
2023-03-10T11:53:01.388Z,6803.00
2023-03-10T11:54:01.370Z,5770.00
2023-03-10T11:55:01.410Z,5297.00
2023-03-10T11:56:01.334Z,5429.00
2023-03-10T11:57:01.356Z,5969.00
2023-03-10T11:58:01.316Z,6748.00
2023-03-10T11:59:01.376Z,7206.00
2023-03-10T12:00:01.328Z,7899.00
2023-03-10T12:01:01.343Z,8055.00
2023-03-10T12:02:01.322Z,8143.00
2023-03-10T12:03:01.299Z,8301.00
2023-03-10T12:04:01.324Z,8456.00
2023-03-10T12:05:01.334Z,7999.00
2023-03-10T12:06:01.252Z,7260.00
2023-03-10T12:07:01.295Z,6449.00
2023-03-10T12:08:01.264Z,5965.00
2023-03-10T12:09:01.200Z,5591.00
2023-03-10T12:10:01.195Z,5359.00
2023-03-10T12:11:01.200Z,5442.00
2023-03-10T12:12:01.236Z,5733.00
2023-03-10T12:13:01.199Z,6190.00
2023-03-10T12:14:01.186Z,6426.00
2023-03-10T12:15:01.192Z,7099.00
2023-03-10T12:16:01.202Z,8654.00
2023-03-10T12:17:01.122Z,9728.00
2023-03-10T12:18:01.155Z,9291.00
2023-03-10T12:19:01.052Z,8958.00
2023-03-10T12:20:01.053Z,9157.00
2023-03-10T12:21:01.070Z,9658.00
2023-03-10T12:22:01.075Z,10337.00
2023-03-10T12:23:01.081Z,11762.00
2023-03-10T12:24:01.051Z,13663.00
2023-03-10T12:25:01.030Z,15642.00
2023-03-10T12:26:01.031Z,17577.00
2023-03-10T12:27:01.001Z,17336.00
2023-03-10T12:28:01.011Z,14679.00
2023-03-10T12:29:01.007Z,13621.00
2023-03-10T12:30:00.953Z,13851.00
2023-03-10T12:31:01.062Z,13693.00
2023-03-10T12:32:00.994Z,12527.00
2023-03-10T12:33:01.172Z,11618.00
2023-03-10T12:34:00.910Z,11172.00
2023-03-10T12:35:00.906Z,11808.00
2023-03-10T12:36:00.952Z,11734.00
2023-03-10T12:37:01.076Z,10303.00
2023-03-10T12:38:00.920Z,9174.00
2023-03-10T12:39:00.896Z,8086.00
2023-03-10T12:40:00.858Z,7221.00